sensor_id;sensor_type;location;lat;lon;timestamp;P1;durP1;ratioP1;P2;durP2;ratioP2
56718;SDS011;42597;40.636;0.278;2023-04-08T00:00:51;5.95;;;2.55;;
56718;SDS011;42597;40.636;0.278;2023-04-08T00:03:17;3.30;;;1.90;;
56718;SDS011;42597;40.636;0.278;2023-04-08T00:05:43;6.57;;;2.22;;
56718;SDS011;42597;40.636;0.278;2023-04-08T00:08:08;5.63;;;2.47;;
56718;SDS011;42597;40.636;0.278;2023-04-08T00:10:34;5.03;;;2.53;;
56718;SDS011;42597;40.636;0.278;2023-04-08T00:13:00;4.35;;;2.45;;
56718;SDS011;42597;40.636;0.278;2023-04-08T00:15:26;4.53;;;2.42;;
56718;SDS011;42597;40.636;0.278;2023-04-08T00:17:52;4.15;;;2.30;;
56718;SDS011;42597;40.636;0.278;2023-04-08T00:20:19;4.65;;;2.53;;
56718;SDS011;42597;40.636;0.278;2023-04-08T00:22:45;4.55;;;2.17;;
56718;SDS011;42597;40.636;0.278;2023-04-08T00:25:11;4.28;;;2.45;;
56718;SDS011;42597;40.636;0.278;2023-04-08T00:27:37;3.40;;;2.13;;
56718;SDS011;42597;40.636;0.278;2023-04-08T00:30:03;3.58;;;2.22;;
56718;SDS011;42597;40.636;0.278;2023-04-08T00:32:30;2.92;;;1.92;;
56718;SDS011;42597;40.636;0.278;2023-04-08T00:34:55;5.82;;;2.35;;
56718;SDS011;42597;40.636;0.278;2023-04-08T00:37:21;4.30;;;2.25;;
56718;SDS011;42597;40.636;0.278;2023-04-08T00:39:47;3.00;;;1.70;;
56718;SDS011;42597;40.636;0.278;2023-04-08T00:42:13;4.40;;;2.47;;
56718;SDS011;42597;40.636;0.278;2023-04-08T00:44:38;3.03;;;1.95;;
56718;SDS011;42597;40.636;0.278;2023-04-08T00:47:04;5.43;;;3.15;;
56718;SDS011;42597;40.636;0.278;2023-04-08T00:49:30;13.98;;;2.40;;
56718;SDS011;42597;40.636;0.278;2023-04-08T00:51:57;4.53;;;2.45;;
56718;SDS011;42597;40.636;0.278;2023-04-08T00:54:23;3.50;;;2.17;;
56718;SDS011;42597;40.636;0.278;2023-04-08T00:56:49;3.72;;;1.98;;
56718;SDS011;42597;40.636;0.278;2023-04-08T00:59:16;5.63;;;2.47;;
56718;SDS011;42597;40.636;0.278;2023-04-08T01:07:40;4.80;;;1.92;;
56718;SDS011;42597;40.636;0.278;2023-04-08T01:10:14;5.20;;;2.33;;
56718;SDS011;42597;40.636;0.278;2023-04-08T01:12:47;5.63;;;2.70;;
56718;SDS011;42597;40.636;0.278;2023-04-08T01:15:16;8.40;;;2.53;;
56718;SDS011;42597;40.636;0.278;2023-04-08T01:17:42;7.93;;;2.17;;
56718;SDS011;42597;40.636;0.278;2023-04-08T01:20:10;6.53;;;2.95;;
56718;SDS011;42597;40.636;0.278;2023-04-08T01:25:31;4.28;;;1.95;;
56718;SDS011;42597;40.636;0.278;2023-04-08T01:27:58;4.80;;;2.03;;
56718;SDS011;42597;40.636;0.278;2023-04-08T01:30:28;2.97;;;1.92;;
56718;SDS011;42597;40.636;0.278;2023-04-08T01:32:55;5.28;;;2.90;;
56718;SDS011;42597;40.636;0.278;2023-04-08T01:35:22;4.75;;;2.10;;
56718;SDS011;42597;40.636;0.278;2023-04-08T01:37:49;6.35;;;2.22;;
56718;SDS011;42597;40.636;0.278;2023-04-08T01:40:16;5.20;;;2.45;;
56718;SDS011;42597;40.636;0.278;2023-04-08T01:42:44;7.70;;;3.35;;
56718;SDS011;42597;40.636;0.278;2023-04-08T01:45:12;3.78;;;2.10;;
56718;SDS011;42597;40.636;0.278;2023-04-08T01:47:40;4.47;;;2.53;;
56718;SDS011;42597;40.636;0.278;2023-04-08T01:50:09;5.85;;;2.35;;
56718;SDS011;42597;40.636;0.278;2023-04-08T01:52:36;3.97;;;1.92;;
56718;SDS011;42597;40.636;0.278;2023-04-08T01:55:04;6.13;;;2.33;;
56718;SDS011;42597;40.636;0.278;2023-04-08T01:57:31;8.50;;;3.13;;
56718;SDS011;42597;40.636;0.278;2023-04-08T02:00:02;4.90;;;2.17;;
56718;SDS011;42597;40.636;0.278;2023-04-08T02:02:31;5.43;;;2.13;;
56718;SDS011;42597;40.636;0.278;2023-04-08T02:05:00;2.80;;;1.75;;
56718;SDS011;42597;40.636;0.278;2023-04-08T02:07:26;3.65;;;2.17;;
56718;SDS011;42597;40.636;0.278;2023-04-08T02:09:52;3.72;;;1.98;;
56718;SDS011;42597;40.636;0.278;2023-04-08T02:12:17;4.68;;;1.85;;
56718;SDS011;42597;40.636;0.278;2023-04-08T02:14:43;5.28;;;2.30;;
56718;SDS011;42597;40.636;0.278;2023-04-08T02:18:12;2.65;;;1.85;;
56718;SDS011;42597;40.636;0.278;2023-04-08T02:20:10;5.25;;;2.10;;
56718;SDS011;42597;40.636;0.278;2023-04-08T02:25:15;4.40;;;2.55;;
56718;SDS011;42597;40.636;0.278;2023-04-08T02:27:42;4.55;;;1.98;;
56718;SDS011;42597;40.636;0.278;2023-04-08T02:30:10;4.65;;;2.08;;
56718;SDS011;42597;40.636;0.278;2023-04-08T02:32:37;5.18;;;2.47;;
56718;SDS011;42597;40.636;0.278;2023-04-08T02:35:04;5.38;;;2.28;;
56718;SDS011;42597;40.636;0.278;2023-04-08T02:37:30;4.82;;;1.95;;
56718;SDS011;42597;40.636;0.278;2023-04-08T02:39:57;3.35;;;2.13;;
56718;SDS011;42597;40.636;0.278;2023-04-08T02:42:23;4.65;;;1.92;;
56718;SDS011;42597;40.636;0.278;2023-04-08T02:44:49;3.72;;;2.17;;
56718;SDS011;42597;40.636;0.278;2023-04-08T02:47:15;4.13;;;2.30;;
56718;SDS011;42597;40.636;0.278;2023-04-08T02:49:41;4.10;;;2.40;;
56718;SDS011;42597;40.636;0.278;2023-04-08T02:52:07;4.15;;;2.08;;
56718;SDS011;42597;40.636;0.278;2023-04-08T02:54:33;5.13;;;1.60;;
56718;SDS011;42597;40.636;0.278;2023-04-08T02:56:59;9.65;;;2.33;;
56718;SDS011;42597;40.636;0.278;2023-04-08T02:59:24;6.95;;;2.22;;
56718;SDS011;42597;40.636;0.278;2023-04-08T03:01:50;7.78;;;2.42;;
56718;SDS011;42597;40.636;0.278;2023-04-08T03:04:16;3.75;;;1.83;;
56718;SDS011;42597;40.636;0.278;2023-04-08T03:06:42;3.80;;;2.08;;
56718;SDS011;42597;40.636;0.278;2023-04-08T03:09:07;4.30;;;2.22;;
56718;SDS011;42597;40.636;0.278;2023-04-08T03:11:33;6.07;;;2.40;;
56718;SDS011;42597;40.636;0.278;2023-04-08T03:13:59;4.30;;;2.50;;
56718;SDS011;42597;40.636;0.278;2023-04-08T03:16:25;7.82;;;2.50;;
56718;SDS011;42597;40.636;0.278;2023-04-08T03:18:51;5.30;;;2.30;;
56718;SDS011;42597;40.636;0.278;2023-04-08T03:21:17;6.25;;;2.53;;
56718;SDS011;42597;40.636;0.278;2023-04-08T03:23:43;8.98;;;2.72;;
56718;SDS011;42597;40.636;0.278;2023-04-08T03:26:09;5.65;;;2.50;;
56718;SDS011;42597;40.636;0.278;2023-04-08T03:28:35;5.90;;;2.80;;
56718;SDS011;42597;40.636;0.278;2023-04-08T03:31:04;7.47;;;3.00;;
56718;SDS011;42597;40.636;0.278;2023-04-08T03:33:30;9.75;;;3.85;;
56718;SDS011;42597;40.636;0.278;2023-04-08T03:35:55;7.10;;;2.75;;
56718;SDS011;42597;40.636;0.278;2023-04-08T03:38:21;8.57;;;2.92;;
56718;SDS011;42597;40.636;0.278;2023-04-08T03:40:47;10.45;;;3.22;;
56718;SDS011;42597;40.636;0.278;2023-04-08T03:43:13;7.90;;;3.72;;
56718;SDS011;42597;40.636;0.278;2023-04-08T03:45:39;6.60;;;3.03;;
56718;SDS011;42597;40.636;0.278;2023-04-08T03:48:06;7.38;;;3.55;;
56718;SDS011;42597;40.636;0.278;2023-04-08T03:50:32;8.13;;;4.03;;
56718;SDS011;42597;40.636;0.278;2023-04-08T03:52:58;7.45;;;2.83;;
56718;SDS011;42597;40.636;0.278;2023-04-08T03:55:23;8.45;;;3.25;;
56718;SDS011;42597;40.636;0.278;2023-04-08T03:57:49;7.85;;;3.50;;
56718;SDS011;42597;40.636;0.278;2023-04-08T04:00:15;7.30;;;2.95;;
56718;SDS011;42597;40.636;0.278;2023-04-08T04:02:40;5.15;;;2.95;;
56718;SDS011;42597;40.636;0.278;2023-04-08T04:05:06;7.35;;;3.35;;
56718;SDS011;42597;40.636;0.278;2023-04-08T04:07:32;7.55;;;3.05;;
56718;SDS011;42597;40.636;0.278;2023-04-08T04:09:57;7.82;;;2.45;;
56718;SDS011;42597;40.636;0.278;2023-04-08T04:12:23;5.95;;;3.00;;
56718;SDS011;42597;40.636;0.278;2023-04-08T04:14:48;8.65;;;2.90;;
56718;SDS011;42597;40.636;0.278;2023-04-08T04:17:14;10.45;;;3.78;;
56718;SDS011;42597;40.636;0.278;2023-04-08T04:19:40;7.47;;;2.58;;
56718;SDS011;42597;40.636;0.278;2023-04-08T04:22:06;10.85;;;3.20;;
56718;SDS011;42597;40.636;0.278;2023-04-08T04:24:31;9.13;;;2.88;;
56718;SDS011;42597;40.636;0.278;2023-04-08T04:26:57;10.68;;;3.10;;
56718;SDS011;42597;40.636;0.278;2023-04-08T04:29:22;9.40;;;3.25;;
56718;SDS011;42597;40.636;0.278;2023-04-08T04:31:48;9.32;;;3.60;;
56718;SDS011;42597;40.636;0.278;2023-04-08T04:34:13;6.80;;;3.17;;
56718;SDS011;42597;40.636;0.278;2023-04-08T04:36:39;7.93;;;3.03;;
56718;SDS011;42597;40.636;0.278;2023-04-08T04:39:05;10.93;;;2.95;;
56718;SDS011;42597;40.636;0.278;2023-04-08T04:41:30;11.93;;;3.85;;
56718;SDS011;42597;40.636;0.278;2023-04-08T04:43:56;11.63;;;3.88;;
56718;SDS011;42597;40.636;0.278;2023-04-08T04:46:21;7.95;;;3.65;;
56718;SDS011;42597;40.636;0.278;2023-04-08T04:48:47;7.32;;;3.05;;
56718;SDS011;42597;40.636;0.278;2023-04-08T04:51:12;9.02;;;3.92;;
56718;SDS011;42597;40.636;0.278;2023-04-08T04:53:38;8.55;;;4.72;;
56718;SDS011;42597;40.636;0.278;2023-04-08T04:56:03;8.65;;;4.20;;
56718;SDS011;42597;40.636;0.278;2023-04-08T04:58:29;10.70;;;5.00;;
56718;SDS011;42597;40.636;0.278;2023-04-08T05:00:55;10.43;;;5.53;;
56718;SDS011;42597;40.636;0.278;2023-04-08T05:03:21;7.85;;;3.22;;
56718;SDS011;42597;40.636;0.278;2023-04-08T05:05:52;11.45;;;5.00;;
56718;SDS011;42597;40.636;0.278;2023-04-08T05:08:19;8.73;;;4.93;;
56718;SDS011;42597;40.636;0.278;2023-04-08T05:10:45;14.77;;;5.53;;
56718;SDS011;42597;40.636;0.278;2023-04-08T05:13:11;15.02;;;5.55;;
56718;SDS011;42597;40.636;0.278;2023-04-08T05:15:36;9.70;;;5.00;;
56718;SDS011;42597;40.636;0.278;2023-04-08T05:18:02;12.48;;;5.20;;
56718;SDS011;42597;40.636;0.278;2023-04-08T05:20:27;8.05;;;4.75;;
56718;SDS011;42597;40.636;0.278;2023-04-08T05:22:53;9.88;;;4.88;;
56718;SDS011;42597;40.636;0.278;2023-04-08T05:25:19;11.43;;;4.93;;
56718;SDS011;42597;40.636;0.278;2023-04-08T05:27:44;14.80;;;5.60;;
56718;SDS011;42597;40.636;0.278;2023-04-08T05:30:11;16.58;;;6.28;;
56718;SDS011;42597;40.636;0.278;2023-04-08T05:32:37;9.10;;;5.10;;
56718;SDS011;42597;40.636;0.278;2023-04-08T05:35:02;9.73;;;4.90;;
56718;SDS011;42597;40.636;0.278;2023-04-08T05:37:28;8.98;;;5.07;;
56718;SDS011;42597;40.636;0.278;2023-04-08T05:39:54;13.75;;;5.35;;
56718;SDS011;42597;40.636;0.278;2023-04-08T05:42:20;10.70;;;5.43;;
56718;SDS011;42597;40.636;0.278;2023-04-08T05:44:45;13.73;;;6.60;;
56718;SDS011;42597;40.636;0.278;2023-04-08T05:47:11;10.55;;;6.25;;
56718;SDS011;42597;40.636;0.278;2023-04-08T05:49:37;12.95;;;5.90;;
56718;SDS011;42597;40.636;0.278;2023-04-08T05:52:02;12.02;;;4.50;;
56718;SDS011;42597;40.636;0.278;2023-04-08T05:54:28;11.75;;;4.53;;
56718;SDS011;42597;40.636;0.278;2023-04-08T05:56:54;7.72;;;2.88;;
56718;SDS011;42597;40.636;0.278;2023-04-08T05:59:20;4.72;;;3.03;;
56718;SDS011;42597;40.636;0.278;2023-04-08T06:01:45;11.57;;;3.35;;
56718;SDS011;42597;40.636;0.278;2023-04-08T06:04:11;6.78;;;2.72;;
56718;SDS011;42597;40.636;0.278;2023-04-08T06:06:37;5.82;;;2.83;;
56718;SDS011;42597;40.636;0.278;2023-04-08T06:09:05;5.53;;;2.17;;
56718;SDS011;42597;40.636;0.278;2023-04-08T06:11:31;4.97;;;2.92;;
56718;SDS011;42597;40.636;0.278;2023-04-08T06:13:57;9.95;;;3.15;;
56718;SDS011;42597;40.636;0.278;2023-04-08T06:16:22;8.02;;;2.88;;
56718;SDS011;42597;40.636;0.278;2023-04-08T06:18:48;5.40;;;2.75;;
56718;SDS011;42597;40.636;0.278;2023-04-08T06:21:13;5.05;;;2.33;;
56718;SDS011;42597;40.636;0.278;2023-04-08T06:23:39;5.90;;;2.63;;
56718;SDS011;42597;40.636;0.278;2023-04-08T06:26:05;7.82;;;3.38;;
56718;SDS011;42597;40.636;0.278;2023-04-08T06:28:31;5.38;;;2.65;;
56718;SDS011;42597;40.636;0.278;2023-04-08T06:30:57;4.82;;;2.63;;
56718;SDS011;42597;40.636;0.278;2023-04-08T06:33:23;8.52;;;3.60;;
56718;SDS011;42597;40.636;0.278;2023-04-08T06:35:49;6.55;;;3.22;;
56718;SDS011;42597;40.636;0.278;2023-04-08T06:38:15;6.35;;;3.80;;
56718;SDS011;42597;40.636;0.278;2023-04-08T06:40:40;15.45;;;5.20;;
56718;SDS011;42597;40.636;0.278;2023-04-08T06:43:06;10.90;;;6.05;;
56718;SDS011;42597;40.636;0.278;2023-04-08T06:45:32;15.55;;;4.32;;
56718;SDS011;42597;40.636;0.278;2023-04-08T06:47:58;11.43;;;6.70;;
56718;SDS011;42597;40.636;0.278;2023-04-08T06:50:24;13.85;;;6.50;;
56718;SDS011;42597;40.636;0.278;2023-04-08T06:52:50;11.15;;;5.95;;
56718;SDS011;42597;40.636;0.278;2023-04-08T06:55:15;12.98;;;6.25;;
56718;SDS011;42597;40.636;0.278;2023-04-08T06:57:41;11.05;;;4.32;;
56718;SDS011;42597;40.636;0.278;2023-04-08T07:00:06;12.75;;;3.78;;
56718;SDS011;42597;40.636;0.278;2023-04-08T07:02:33;11.48;;;5.75;;
56718;SDS011;42597;40.636;0.278;2023-04-08T07:04:58;25.17;;;6.65;;
56718;SDS011;42597;40.636;0.278;2023-04-08T07:07:24;9.65;;;6.88;;
56718;SDS011;42597;40.636;0.278;2023-04-08T07:09:50;14.57;;;7.57;;
56718;SDS011;42597;40.636;0.278;2023-04-08T07:12:16;13.13;;;6.80;;
56718;SDS011;42597;40.636;0.278;2023-04-08T07:14:41;10.05;;;6.13;;
56718;SDS011;42597;40.636;0.278;2023-04-08T07:17:07;11.55;;;5.55;;
56718;SDS011;42597;40.636;0.278;2023-04-08T07:19:32;11.80;;;6.28;;
56718;SDS011;42597;40.636;0.278;2023-04-08T07:21:58;8.85;;;5.03;;
56718;SDS011;42597;40.636;0.278;2023-04-08T07:24:24;8.45;;;4.53;;
56718;SDS011;42597;40.636;0.278;2023-04-08T07:26:49;9.32;;;5.10;;
56718;SDS011;42597;40.636;0.278;2023-04-08T07:29:15;9.15;;;6.25;;
56718;SDS011;42597;40.636;0.278;2023-04-08T07:31:43;13.02;;;6.97;;
56718;SDS011;42597;40.636;0.278;2023-04-08T07:34:09;11.15;;;5.68;;
56718;SDS011;42597;40.636;0.278;2023-04-08T07:36:35;14.98;;;6.18;;
56718;SDS011;42597;40.636;0.278;2023-04-08T07:39:01;11.35;;;6.35;;
56718;SDS011;42597;40.636;0.278;2023-04-08T07:41:27;13.85;;;6.60;;
56718;SDS011;42597;40.636;0.278;2023-04-08T07:43:52;8.75;;;5.32;;
56718;SDS011;42597;40.636;0.278;2023-04-08T07:46:18;10.65;;;6.10;;
56718;SDS011;42597;40.636;0.278;2023-04-08T07:48:45;10.40;;;5.53;;
56718;SDS011;42597;40.636;0.278;2023-04-08T07:51:10;13.60;;;6.53;;
56718;SDS011;42597;40.636;0.278;2023-04-08T07:53:36;18.13;;;6.55;;
56718;SDS011;42597;40.636;0.278;2023-04-08T07:56:09;13.82;;;6.93;;
56718;SDS011;42597;40.636;0.278;2023-04-08T07:58:35;15.68;;;5.47;;
56718;SDS011;42597;40.636;0.278;2023-04-08T08:01:01;14.38;;;6.28;;
56718;SDS011;42597;40.636;0.278;2023-04-08T08:03:27;9.82;;;5.82;;
56718;SDS011;42597;40.636;0.278;2023-04-08T08:05:52;13.98;;;6.22;;
56718;SDS011;42597;40.636;0.278;2023-04-08T08:08:18;9.93;;;6.20;;
56718;SDS011;42597;40.636;0.278;2023-04-08T08:10:43;9.20;;;5.82;;
56718;SDS011;42597;40.636;0.278;2023-04-08T08:13:09;14.23;;;6.38;;
56718;SDS011;42597;40.636;0.278;2023-04-08T08:15:36;12.98;;;7.00;;
56718;SDS011;42597;40.636;0.278;2023-04-08T08:18:02;11.95;;;6.28;;
56718;SDS011;42597;40.636;0.278;2023-04-08T08:20:27;15.55;;;6.30;;
56718;SDS011;42597;40.636;0.278;2023-04-08T08:22:53;15.65;;;6.07;;
56718;SDS011;42597;40.636;0.278;2023-04-08T08:25:19;13.27;;;5.90;;
56718;SDS011;42597;40.636;0.278;2023-04-08T08:27:44;10.13;;;4.50;;
56718;SDS011;42597;40.636;0.278;2023-04-08T08:30:10;12.88;;;5.07;;
56718;SDS011;42597;40.636;0.278;2023-04-08T08:32:35;15.27;;;5.20;;
56718;SDS011;42597;40.636;0.278;2023-04-08T08:35:01;12.23;;;6.20;;
56718;SDS011;42597;40.636;0.278;2023-04-08T08:37:27;18.58;;;5.70;;
56718;SDS011;42597;40.636;0.278;2023-04-08T08:39:53;20.35;;;8.02;;
56718;SDS011;42597;40.636;0.278;2023-04-08T08:42:19;15.30;;;5.50;;
56718;SDS011;42597;40.636;0.278;2023-04-08T08:44:46;9.27;;;5.55;;
56718;SDS011;42597;40.636;0.278;2023-04-08T08:47:12;15.07;;;5.15;;
56718;SDS011;42597;40.636;0.278;2023-04-08T08:49:38;8.57;;;4.72;;
56718;SDS011;42597;40.636;0.278;2023-04-08T08:52:03;17.60;;;6.80;;
56718;SDS011;42597;40.636;0.278;2023-04-08T08:54:31;9.73;;;5.50;;
56718;SDS011;42597;40.636;0.278;2023-04-08T08:56:56;14.52;;;4.72;;
56718;SDS011;42597;40.636;0.278;2023-04-08T08:59:22;14.15;;;7.35;;
56718;SDS011;42597;40.636;0.278;2023-04-08T09:01:48;16.17;;;5.82;;
56718;SDS011;42597;40.636;0.278;2023-04-08T09:04:17;10.15;;;5.10;;
56718;SDS011;42597;40.636;0.278;2023-04-08T09:06:48;18.20;;;5.47;;
56718;SDS011;42597;40.636;0.278;2023-04-08T09:09:15;11.20;;;6.32;;
56718;SDS011;42597;40.636;0.278;2023-04-08T09:11:42;10.80;;;5.45;;
56718;SDS011;42597;40.636;0.278;2023-04-08T09:14:16;20.60;;;5.93;;
56718;SDS011;42597;40.636;0.278;2023-04-08T09:16:45;9.68;;;5.30;;
56718;SDS011;42597;40.636;0.278;2023-04-08T09:19:11;18.63;;;6.25;;
56718;SDS011;42597;40.636;0.278;2023-04-08T09:21:37;14.25;;;5.65;;
56718;SDS011;42597;40.636;0.278;2023-04-08T09:24:05;8.48;;;5.20;;
56718;SDS011;42597;40.636;0.278;2023-04-08T09:26:31;15.60;;;4.93;;
56718;SDS011;42597;40.636;0.278;2023-04-08T09:28:59;11.40;;;6.03;;
56718;SDS011;42597;40.636;0.278;2023-04-08T09:31:35;12.48;;;6.05;;
56718;SDS011;42597;40.636;0.278;2023-04-08T09:34:23;11.55;;;5.53;;
56718;SDS011;42597;40.636;0.278;2023-04-08T09:36:51;12.35;;;5.53;;
56718;SDS011;42597;40.636;0.278;2023-04-08T09:39:18;16.30;;;6.05;;
56718;SDS011;42597;40.636;0.278;2023-04-08T09:41:44;9.50;;;4.63;;
56718;SDS011;42597;40.636;0.278;2023-04-08T09:44:12;7.78;;;4.63;;
56718;SDS011;42597;40.636;0.278;2023-04-08T09:49:17;16.70;;;5.85;;
56718;SDS011;42597;40.636;0.278;2023-04-08T09:57:42;9.98;;;6.15;;
56718;SDS011;42597;40.636;0.278;2023-04-08T10:00:14;13.05;;;5.85;;
56718;SDS011;42597;40.636;0.278;2023-04-08T10:02:51;18.30;;;5.90;;
56718;SDS011;42597;40.636;0.278;2023-04-08T10:05:44;10.45;;;5.53;;
56718;SDS011;42597;40.636;0.278;2023-04-08T10:08:11;14.10;;;6.05;;
56718;SDS011;42597;40.636;0.278;2023-04-08T10:10:37;7.88;;;5.30;;
56718;SDS011;42597;40.636;0.278;2023-04-08T10:13:05;16.10;;;7.32;;
56718;SDS011;42597;40.636;0.278;2023-04-08T10:15:32;13.45;;;7.30;;
56718;SDS011;42597;40.636;0.278;2023-04-08T10:23:02;11.70;;;5.97;;
56718;SDS011;42597;40.636;0.278;2023-04-08T10:25:28;11.30;;;6.18;;
56718;SDS011;42597;40.636;0.278;2023-04-08T10:28:01;9.00;;;5.43;;
56718;SDS011;42597;40.636;0.278;2023-04-08T10:33:22;11.65;;;5.10;;
56718;SDS011;42597;40.636;0.278;2023-04-08T10:38:23;9.25;;;4.95;;
56718;SDS011;42597;40.636;0.278;2023-04-08T10:40:49;10.90;;;6.05;;
56718;SDS011;42597;40.636;0.278;2023-04-08T10:43:15;10.15;;;6.38;;
56718;SDS011;42597;40.636;0.278;2023-04-08T10:45:42;13.70;;;6.03;;
56718;SDS011;42597;40.636;0.278;2023-04-08T10:53:02;13.85;;;5.55;;
56718;SDS011;42597;40.636;0.278;2023-04-08T10:55:29;14.43;;;6.65;;
56718;SDS011;42597;40.636;0.278;2023-04-08T10:58:03;15.48;;;5.43;;
56718;SDS011;42597;40.636;0.278;2023-04-08T11:00:37;16.85;;;5.47;;
56718;SDS011;42597;40.636;0.278;2023-04-08T11:03:04;8.73;;;5.35;;
56718;SDS011;42597;40.636;0.278;2023-04-08T11:05:32;14.18;;;5.22;;
56718;SDS011;42597;40.636;0.278;2023-04-08T11:07:58;9.98;;;4.93;;
56718;SDS011;42597;40.636;0.278;2023-04-08T11:10:24;9.63;;;4.95;;
56718;SDS011;42597;40.636;0.278;2023-04-08T11:12:52;7.13;;;4.78;;
56718;SDS011;42597;40.636;0.278;2023-04-08T11:15:19;14.20;;;5.50;;
56718;SDS011;42597;40.636;0.278;2023-04-08T11:17:45;8.73;;;4.38;;
56718;SDS011;42597;40.636;0.278;2023-04-08T11:20:12;12.48;;;5.68;;
56718;SDS011;42597;40.636;0.278;2023-04-08T11:22:38;10.93;;;5.30;;
56718;SDS011;42597;40.636;0.278;2023-04-08T11:25:04;13.18;;;4.70;;
56718;SDS011;42597;40.636;0.278;2023-04-08T11:27:32;14.57;;;5.23;;
56718;SDS011;42597;40.636;0.278;2023-04-08T11:30:00;9.82;;;4.78;;
56718;SDS011;42597;40.636;0.278;2023-04-08T11:32:26;14.45;;;5.55;;
56718;SDS011;42597;40.636;0.278;2023-04-08T11:34:55;12.07;;;5.47;;
56718;SDS011;42597;40.636;0.278;2023-04-08T11:37:24;10.30;;;6.00;;
56718;SDS011;42597;40.636;0.278;2023-04-08T11:39:50;11.95;;;5.18;;
56718;SDS011;42597;40.636;0.278;2023-04-08T11:42:28;13.98;;;4.80;;
56718;SDS011;42597;40.636;0.278;2023-04-08T11:44:55;11.50;;;4.82;;
56718;SDS011;42597;40.636;0.278;2023-04-08T11:47:22;8.50;;;3.92;;
56718;SDS011;42597;40.636;0.278;2023-04-08T11:50:03;6.05;;;4.18;;
56718;SDS011;42597;40.636;0.278;2023-04-08T11:52:45;9.93;;;4.88;;
56718;SDS011;42597;40.636;0.278;2023-04-08T11:55:22;7.15;;;3.63;;
56718;SDS011;42597;40.636;0.278;2023-04-08T11:57:49;10.50;;;4.72;;
56718;SDS011;42597;40.636;0.278;2023-04-08T12:00:16;11.07;;;5.72;;
56718;SDS011;42597;40.636;0.278;2023-04-08T12:02:43;15.10;;;5.35;;
56718;SDS011;42597;40.636;0.278;2023-04-08T12:05:09;8.57;;;4.95;;
56718;SDS011;42597;40.636;0.278;2023-04-08T12:07:34;10.82;;;5.38;;
56718;SDS011;42597;40.636;0.278;2023-04-08T12:10:00;11.25;;;5.85;;
56718;SDS011;42597;40.636;0.278;2023-04-08T12:12:26;15.60;;;6.30;;
56718;SDS011;42597;40.636;0.278;2023-04-08T12:14:51;14.20;;;8.02;;
56718;SDS011;42597;40.636;0.278;2023-04-08T12:17:17;15.93;;;9.68;;
56718;SDS011;42597;40.636;0.278;2023-04-08T12:19:43;13.18;;;9.60;;
56718;SDS011;42597;40.636;0.278;2023-04-08T12:22:09;13.70;;;9.10;;
56718;SDS011;42597;40.636;0.278;2023-04-08T12:24:34;26.13;;;7.63;;
56718;SDS011;42597;40.636;0.278;2023-04-08T12:27:00;14.38;;;7.35;;
56718;SDS011;42597;40.636;0.278;2023-04-08T12:29:27;13.18;;;5.78;;
56718;SDS011;42597;40.636;0.278;2023-04-08T12:31:53;8.25;;;4.50;;
56718;SDS011;42597;40.636;0.278;2023-04-08T12:34:18;12.70;;;4.90;;
56718;SDS011;42597;40.636;0.278;2023-04-08T12:36:44;9.60;;;4.68;;
56718;SDS011;42597;40.636;0.278;2023-04-08T12:39:10;8.40;;;4.50;;
56718;SDS011;42597;40.636;0.278;2023-04-08T12:41:35;12.05;;;5.32;;
56718;SDS011;42597;40.636;0.278;2023-04-08T12:44:01;11.13;;;4.78;;
56718;SDS011;42597;40.636;0.278;2023-04-08T12:46:26;15.20;;;5.45;;
56718;SDS011;42597;40.636;0.278;2023-04-08T12:48:52;12.55;;;4.68;;
56718;SDS011;42597;40.636;0.278;2023-04-08T12:51:18;9.60;;;5.05;;
56718;SDS011;42597;40.636;0.278;2023-04-08T12:53:44;10.80;;;4.65;;
56718;SDS011;42597;40.636;0.278;2023-04-08T12:56:09;11.05;;;4.60;;
56718;SDS011;42597;40.636;0.278;2023-04-08T12:58:35;9.20;;;5.53;;
56718;SDS011;42597;40.636;0.278;2023-04-08T13:01:01;11.75;;;4.90;;
56718;SDS011;42597;40.636;0.278;2023-04-08T13:03:26;7.47;;;4.63;;
56718;SDS011;42597;40.636;0.278;2023-04-08T13:05:54;11.55;;;4.38;;
56718;SDS011;42597;40.636;0.278;2023-04-08T13:08:20;9.10;;;4.70;;
56718;SDS011;42597;40.636;0.278;2023-04-08T13:10:47;13.27;;;5.60;;
56718;SDS011;42597;40.636;0.278;2023-04-08T13:13:12;12.18;;;5.15;;
56718;SDS011;42597;40.636;0.278;2023-04-08T13:15:38;11.75;;;4.15;;
56718;SDS011;42597;40.636;0.278;2023-04-08T13:18:04;14.85;;;6.32;;
56718;SDS011;42597;40.636;0.278;2023-04-08T13:20:29;14.75;;;5.57;;
56718;SDS011;42597;40.636;0.278;2023-04-08T13:22:55;15.65;;;4.90;;
56718;SDS011;42597;40.636;0.278;2023-04-08T13:25:21;10.05;;;4.82;;
56718;SDS011;42597;40.636;0.278;2023-04-08T13:27:46;8.20;;;4.50;;
56718;SDS011;42597;40.636;0.278;2023-04-08T13:30:12;11.85;;;6.55;;
56718;SDS011;42597;40.636;0.278;2023-04-08T13:32:38;13.55;;;6.40;;
56718;SDS011;42597;40.636;0.278;2023-04-08T13:35:03;16.48;;;5.25;;
56718;SDS011;42597;40.636;0.278;2023-04-08T13:37:29;8.55;;;4.82;;
56718;SDS011;42597;40.636;0.278;2023-04-08T13:39:55;15.77;;;5.20;;
56718;SDS011;42597;40.636;0.278;2023-04-08T13:42:21;14.98;;;5.22;;
56718;SDS011;42597;40.636;0.278;2023-04-08T13:44:47;13.70;;;4.13;;
56718;SDS011;42597;40.636;0.278;2023-04-08T13:47:13;12.73;;;4.47;;
56718;SDS011;42597;40.636;0.278;2023-04-08T13:49:39;9.15;;;4.50;;
56718;SDS011;42597;40.636;0.278;2023-04-08T13:52:04;12.70;;;3.78;;
56718;SDS011;42597;40.636;0.278;2023-04-08T13:54:30;9.07;;;3.90;;
56718;SDS011;42597;40.636;0.278;2023-04-08T13:56:56;8.70;;;3.95;;
56718;SDS011;42597;40.636;0.278;2023-04-08T13:59:21;9.77;;;3.28;;
56718;SDS011;42597;40.636;0.278;2023-04-08T14:01:47;10.95;;;3.92;;
56718;SDS011;42597;40.636;0.278;2023-04-08T14:04:13;18.48;;;4.60;;
56718;SDS011;42597;40.636;0.278;2023-04-08T14:06:38;10.32;;;3.72;;
56718;SDS011;42597;40.636;0.278;2023-04-08T14:09:04;10.25;;;4.10;;
56718;SDS011;42597;40.636;0.278;2023-04-08T14:11:30;11.82;;;3.75;;
56718;SDS011;42597;40.636;0.278;2023-04-08T14:13:56;8.25;;;3.88;;
56718;SDS011;42597;40.636;0.278;2023-04-08T14:16:21;17.20;;;4.38;;
56718;SDS011;42597;40.636;0.278;2023-04-08T14:18:47;8.10;;;2.65;;
56718;SDS011;42597;40.636;0.278;2023-04-08T14:21:13;15.00;;;4.15;;
56718;SDS011;42597;40.636;0.278;2023-04-08T14:23:40;9.75;;;3.25;;
56718;SDS011;42597;40.636;0.278;2023-04-08T14:26:05;9.70;;;3.28;;
56718;SDS011;42597;40.636;0.278;2023-04-08T14:28:31;11.02;;;3.00;;
56718;SDS011;42597;40.636;0.278;2023-04-08T14:30:57;10.75;;;3.97;;
56718;SDS011;42597;40.636;0.278;2023-04-08T14:33:22;9.80;;;3.00;;
56718;SDS011;42597;40.636;0.278;2023-04-08T14:35:48;14.30;;;4.07;;
56718;SDS011;42597;40.636;0.278;2023-04-08T14:38:13;11.75;;;3.80;;
56718;SDS011;42597;40.636;0.278;2023-04-08T14:40:39;7.78;;;3.13;;
56718;SDS011;42597;40.636;0.278;2023-04-08T14:43:05;10.45;;;4.10;;
56718;SDS011;42597;40.636;0.278;2023-04-08T14:45:31;14.68;;;3.30;;
56718;SDS011;42597;40.636;0.278;2023-04-08T14:47:57;12.73;;;3.20;;
56718;SDS011;42597;40.636;0.278;2023-04-08T14:50:22;18.83;;;4.97;;
56718;SDS011;42597;40.636;0.278;2023-04-08T14:52:48;13.30;;;3.20;;
56718;SDS011;42597;40.636;0.278;2023-04-08T14:55:14;15.75;;;3.47;;
56718;SDS011;42597;40.636;0.278;2023-04-08T14:57:40;15.02;;;4.10;;
56718;SDS011;42597;40.636;0.278;2023-04-08T15:00:05;13.40;;;4.13;;
56718;SDS011;42597;40.636;0.278;2023-04-08T15:02:31;11.05;;;3.13;;
56718;SDS011;42597;40.636;0.278;2023-04-08T15:04:57;15.38;;;4.65;;
56718;SDS011;42597;40.636;0.278;2023-04-08T15:07:22;9.35;;;3.22;;
56718;SDS011;42597;40.636;0.278;2023-04-08T15:09:48;15.85;;;5.35;;
56718;SDS011;42597;40.636;0.278;2023-04-08T15:12:14;10.20;;;2.85;;